Maples, Missouri
Current Conditions -  °F | °C
As of 5:58 AM on Thursday 27 Nov 2014 (Local Time) from KTBN Reporting Station
Overcast Overcast  
Wind Chill: 23°   Ceiling: 1300
Heat Index: 31°   Visibility: 10mi
Dew Point: 28°   Wind: 9mph
Humidity: 89%   Direction: 300°WNW
Pressure: 30.42"   Gusts: NA
Location:  37.5023°N, 91.4546°W
Report Text: KTBN 271158Z AUTO 30008KT 10SM OVC013 M01/M02 A3042 RMK AO2 SLP314 70022 T10071023 11002 21009 52019
Loading
Personal Weather Stations






























Interactive Weather Map New forecast layout! Learn more

10-Day Weather Forecast

Advertisements
Track Severe Weather on mobile